Time,TemperatureF,DewpointF,PressureIn,WindDirection,WindDirectionDegrees,WindSpeedMPH,WindSpeedGustMPH,Humidity,HourlyPrecipIn,Conditions,Clouds,dailyrainin,SolarRadiationWatts/m^2,SoftwareType,DateUTC
2013-04-02 00:32:00,44.0,39.0,-100.00,WNW,293,6.0,16.0,83,0.00,,,0.02,1.000000,,2013-04-02 07:32:00,
2013-04-02 00:42:00,44.0,39.0,-100.00,WNW,293,6.0,16.0,83,0.00,,,0.02,1.000000,,2013-04-02 07:42:00,
2013-04-02 00:52:00,44.0,39.0,-100.00,WNW,293,6.0,16.0,83,0.00,,,0.02,1.000000,,2013-04-02 07:52:00,
2013-04-02 01:32:00,43.0,38.0,-100.00,West,269,6.0,18.0,81,0.00,,,0.01,1.000000,,2013-04-02 08:32:00,
2013-04-02 01:42:00,43.0,38.0,-100.00,West,269,6.0,18.0,81,0.00,,,0.01,1.000000,,2013-04-02 08:42:00,
2013-04-02 01:52:00,43.0,38.0,-100.00,West,269,6.0,18.0,81,0.00,,,0.01,1.000000,,2013-04-02 08:52:00,
2013-04-02 02:32:00,43.0,38.0,-100.00,WNW,301,6.0,17.0,82,0.00,,,0.01,1.000000,,2013-04-02 09:32:00,
2013-04-02 02:43:00,43.0,38.0,-100.00,WNW,301,6.0,17.0,82,0.00,,,0.01,1.000000,,2013-04-02 09:43:00,
2013-04-02 02:52:00,43.0,38.0,-100.00,WNW,301,6.0,17.0,82,0.00,,,0.01,1.000000,,2013-04-02 09:52:00,
2013-04-02 03:23:00,43.0,37.0,-100.00,WNW,295,5.0,16.0,80,0.00,,,0.00,1.000000,,2013-04-02 10:23:00,
2013-04-02 03:33:00,43.0,37.0,-100.00,WNW,295,5.0,16.0,80,0.00,,,0.00,1.000000,,2013-04-02 10:33:00,
2013-04-02 03:42:00,43.0,37.0,-100.00,WNW,295,5.0,16.0,80,0.00,,,0.00,1.000000,,2013-04-02 10:42:00,
2013-04-02 03:52:00,43.0,37.0,-100.00,WNW,295,5.0,16.0,80,0.00,,,0.00,1.000000,,2013-04-02 10:52:00,
2013-04-02 04:32:00,43.0,37.0,-100.00,NW,307,5.0,9.0,80,0.00,,,0.00,1.000000,,2013-04-02 11:32:00,
2013-04-02 04:42:00,43.0,37.0,-100.00,NW,307,5.0,9.0,80,0.00,,,0.00,1.000000,,2013-04-02 11:42:00,
2013-04-02 04:52:00,43.0,37.0,-100.00,NW,307,5.0,9.0,80,0.00,,,0.00,1.000000,,2013-04-02 11:52:00,
2013-04-02 05:22:00,42.0,37.0,-100.00,NNW,338,4.0,11.0,83,0.00,,,-99.99,1.000000,,2013-04-02 12:22:00,
2013-04-02 05:32:00,42.0,37.0,-100.00,NNW,338,4.0,11.0,83,0.00,,,-99.99,1.000000,,2013-04-02 12:32:00,
2013-04-02 05:42:00,42.0,37.0,-100.00,NNW,338,4.0,11.0,83,0.00,,,-99.99,1.000000,,2013-04-02 12:42:00,
2013-04-02 05:52:00,42.0,37.0,-100.00,NNW,338,4.0,11.0,83,0.00,,,-99.99,1.000000,,2013-04-02 12:52:00,
2013-04-02 06:22:00,42.0,39.0,-100.00,North,11,6.0,12.0,90,0.00,,,0.00,1.000000,,2013-04-02 13:22:00,
2013-04-02 06:32:00,42.0,39.0,-100.00,North,11,6.0,12.0,90,0.00,,,0.00,1.000000,,2013-04-02 13:32:00,
2013-04-02 06:42:00,42.0,39.0,-100.00,North,11,6.0,12.0,90,0.00,,,0.00,1.000000,,2013-04-02 13:42:00,
2013-04-02 06:52:00,42.0,39.0,-100.00,North,11,6.0,12.0,90,0.00,,,0.00,1.000000,,2013-04-02 13:52:00,
2013-04-02 07:32:00,42.0,39.0,-100.00,North,354,7.0,11.0,90,0.00,,,0.00,7.000000,,2013-04-02 14:32:00,
2013-04-02 07:42:00,42.0,39.0,-100.00,North,354,7.0,11.0,90,0.00,,,0.00,7.000000,,2013-04-02 14:42:00,
2013-04-02 07:52:00,42.0,39.0,-100.00,North,354,7.0,11.0,90,0.00,,,0.00,7.000000,,2013-04-02 14:52:00,
2013-04-02 08:33:00,45.0,39.0,-100.00,North,359,6.0,14.0,79,0.00,,,0.00,145.000000,,2013-04-02 15:33:00,
2013-04-02 08:42:00,45.0,39.0,-100.00,North,359,6.0,14.0,79,0.00,,,0.00,145.000000,,2013-04-02 15:42:00,
2013-04-02 08:54:00,45.0,39.0,-100.00,North,359,6.0,14.0,79,0.00,,,0.00,145.000000,,2013-04-02 15:54:00,
2013-04-02 09:24:00,49.0,39.0,-100.00,North,5,4.0,10.0,69,0.00,,,0.00,407.000000,,2013-04-02 16:24:00,
2013-04-02 09:34:00,49.0,39.0,-100.00,North,5,4.0,10.0,69,0.00,,,0.00,407.000000,,2013-04-02 16:34:00,
2013-04-02 09:43:00,49.0,39.0,-100.00,North,5,4.0,10.0,69,0.00,,,0.00,407.000000,,2013-04-02 16:43:00,
2013-04-02 09:52:00,49.0,39.0,-100.00,North,5,4.0,10.0,69,0.00,,,0.00,407.000000,,2013-04-02 16:52:00,
2013-04-02 10:24:00,54.0,40.0,-100.00,North,353,3.0,7.0,59,0.00,,,0.00,552.000000,,2013-04-02 17:24:00,
2013-04-02 10:34:00,54.0,40.0,-100.00,North,353,3.0,7.0,59,0.00,,,0.00,552.000000,,2013-04-02 17:34:00,
2013-04-02 10:43:00,54.0,40.0,-100.00,North,353,3.0,7.0,59,0.00,,,0.00,552.000000,,2013-04-02 17:43:00,
2013-04-02 10:53:00,54.0,40.0,-100.00,North,353,3.0,7.0,59,0.00,,,0.00,552.000000,,2013-04-02 17:53:00,
2013-04-02 11:23:00,58.0,37.0,-100.00,North,355,3.0,7.0,45,0.00,,,0.00,654.000000,,2013-04-02 18:23:00,
2013-04-02 11:33:00,58.0,37.0,-100.00,North,355,3.0,7.0,45,0.00,,,0.00,654.000000,,2013-04-02 18:33:00,
2013-04-02 11:42:00,58.0,37.0,-100.00,North,355,3.0,7.0,45,0.00,,,0.00,654.000000,,2013-04-02 18:42:00,
2013-04-02 11:53:00,58.0,37.0,-100.00,North,355,3.0,7.0,45,0.00,,,0.00,654.000000,,2013-04-02 18:53:00,
2013-04-02 12:33:00,62.0,39.0,-100.00,NE,56,3.0,11.0,42,0.00,,,0.00,894.000000,,2013-04-02 19:33:00,
2013-04-02 12:45:00,62.0,39.0,-100.00,NE,56,3.0,11.0,42,0.00,,,0.00,894.000000,,2013-04-02 19:45:00,
2013-04-02 12:53:00,62.0,39.0,-100.00,NE,56,3.0,11.0,42,0.00,,,0.00,894.000000,,2013-04-02 19:53:00,
2013-04-02 13:22:00,63.0,37.0,-100.00,North,357,4.0,10.0,38,0.00,,,0.00,918.000000,,2013-04-02 20:22:00,
2013-04-02 13:33:00,63.0,37.0,-100.00,North,357,4.0,10.0,38,0.00,,,0.00,918.000000,,2013-04-02 20:33:00,
2013-04-02 13:43:00,63.0,37.0,-100.00,North,357,4.0,10.0,38,0.00,,,0.00,918.000000,,2013-04-02 20:43:00,
2013-04-02 13:52:00,63.0,37.0,-100.00,North,357,4.0,10.0,38,0.00,,,0.00,918.000000,,2013-04-02 20:52:00,
2013-04-02 15:33:00,68.0,38.0,-100.00,SW,223,5.0,9.0,33,-99.99,,,0.00,937.000000,,2013-04-02 22:33:00,
2013-04-02 15:43:00,68.0,38.0,-100.00,SW,223,5.0,9.0,33,-99.99,,,0.00,937.000000,,2013-04-02 22:43:00,
2013-04-02 15:53:00,68.0,38.0,-100.00,SW,223,5.0,9.0,33,-99.99,,,0.00,937.000000,,2013-04-02 22:53:00,
2013-04-02 16:34:00,65.0,29.0,-100.00,NNE,30,3.0,10.0,26,0.00,,,0.00,831.000000,,2013-04-02 23:34:00,
2013-04-02 16:42:00,65.0,29.0,-100.00,NNE,30,3.0,10.0,26,0.00,,,0.00,831.000000,,2013-04-02 23:42:00,
2013-04-02 16:52:00,65.0,29.0,-100.00,NNE,30,3.0,10.0,26,0.00,,,0.00,831.000000,,2013-04-02 23:52:00,
2013-04-02 17:23:00,61.0,32.0,-100.00,North,354,4.0,10.0,33,0.00,,,0.00,667.000000,,2013-04-03 00:23:00,
2013-04-02 17:32:00,61.0,32.0,-100.00,North,354,4.0,10.0,33,0.00,,,0.00,667.000000,,2013-04-03 00:32:00,
2013-04-02 17:44:00,61.0,32.0,-100.00,North,354,4.0,10.0,33,0.00,,,0.00,667.000000,,2013-04-03 00:44:00,
2013-04-02 17:53:00,61.0,32.0,-100.00,North,354,4.0,10.0,33,0.00,,,0.00,667.000000,,2013-04-03 00:53:00,
2013-04-02 18:33:00,58.0,31.0,-100.00,West,281,6.0,14.0,36,0.00,,,0.00,416.000000,,2013-04-03 01:33:00,
2013-04-02 18:42:00,58.0,31.0,-100.00,West,281,6.0,14.0,36,0.00,,,0.00,416.000000,,2013-04-03 01:42:00,
2013-04-02 18:52:00,58.0,31.0,-100.00,West,281,6.0,14.0,36,0.00,,,0.00,416.000000,,2013-04-03 01:52:00,
2013-04-02 19:23:00,54.0,30.0,-100.00,West,273,8.0,13.0,39,0.00,,,0.00,74.000000,,2013-04-03 02:23:00,
2013-04-02 19:33:00,54.0,30.0,-100.00,West,273,8.0,13.0,39,0.00,,,0.00,74.000000,,2013-04-03 02:33:00,
2013-04-02 19:43:00,54.0,30.0,-100.00,West,273,8.0,13.0,39,0.00,,,0.00,74.000000,,2013-04-03 02:43:00,
2013-04-02 19:52:00,54.0,30.0,-100.00,West,273,8.0,13.0,39,0.00,,,0.00,74.000000,,2013-04-03 02:52:00,
2013-04-02 20:22:00,53.0,25.0,-100.00,WSW,244,3.0,12.0,33,0.00,,,0.00,4.000000,,2013-04-03 03:22:00,
2013-04-02 20:35:00,53.0,25.0,-100.00,WSW,244,3.0,12.0,33,0.00,,,0.00,4.000000,,2013-04-03 03:35:00,
2013-04-02 20:43:00,53.0,25.0,-100.00,WSW,244,3.0,12.0,33,0.00,,,0.00,4.000000,,2013-04-03 03:43:00,
2013-04-02 20:53:00,53.0,25.0,-100.00,WSW,244,3.0,12.0,33,0.00,,,0.00,4.000000,,2013-04-03 03:53:00,
2013-04-02 21:23:00,51.0,26.0,-100.00,WNW,299,5.0,9.0,37,0.00,,,0.00,1.000000,,2013-04-03 04:23:00,
2013-04-02 21:32:00,51.0,26.0,-100.00,WNW,299,5.0,9.0,37,0.00,,,0.00,1.000000,,2013-04-03 04:32:00,
2013-04-02 21:42:00,51.0,26.0,-100.00,WNW,299,5.0,9.0,37,0.00,,,0.00,1.000000,,2013-04-03 04:42:00,
2013-04-02 21:53:00,51.0,26.0,-100.00,WNW,299,5.0,9.0,37,0.00,,,0.00,1.000000,,2013-04-03 04:53:00,
2013-04-02 22:32:00,51.0,28.0,-100.00,NNW,339,6.0,8.0,40,0.00,,,0.00,1.000000,,2013-04-03 05:32:00,
2013-04-02 22:42:00,51.0,28.0,-100.00,NNW,339,6.0,8.0,40,0.00,,,0.00,1.000000,,2013-04-03 05:42:00,
2013-04-02 22:52:00,51.0,28.0,-100.00,NNW,339,6.0,8.0,40,0.00,,,0.00,1.000000,,2013-04-03 05:52:00,
2013-04-02 23:22:00,51.0,26.0,-100.00,NW,322,2.0,10.0,37,0.00,,,0.00,1.000000,,2013-04-03 06:22:00,
2013-04-02 23:32:00,51.0,26.0,-100.00,NW,322,2.0,10.0,37,0.00,,,0.00,1.000000,,2013-04-03 06:32:00,
2013-04-02 23:42:00,51.0,26.0,-100.00,NW,322,2.0,10.0,37,0.00,,,0.00,1.000000,,2013-04-03 06:42:00,
2013-04-02 23:52:00,51.0,26.0,-100.00,NW,322,2.0,10.0,37,0.00,,,0.00,1.000000,,2013-04-03 06:52:00,